Terminal Aerodrome Forecast
Issued by NWS Sterling, VA

Home | Current Version | Previous Version | Text Only | Print | Product List | Glossary On
Versions: 1 2 3 4 5 6 7 8 9 10 11 12 13 14 15
000
FTUS41 KLWX 281457 AAA
TAFCHO
TAF AMD
KCHO 281457Z 2815/2912 35003KT P6SM OVC080
     FM282000 18004KT 3SM +SHRA VCTS OVC040CB
     FM290000 24004KT 3SM SHRA OVC010
     FM290500 VRB03KT 3SM -SHRA OVC035=

USA.gov is the U.S. government's official web portal to all federal, state and local government web resources and services.